createdAt,value
2022-11-26T00:01:22.533Z,6.80
2022-11-26T00:03:49.751Z,6.80
2022-11-26T00:06:31.724Z,6.80
2022-11-26T00:09:02.763Z,6.80
2022-11-26T00:11:30.048Z,6.80
2022-11-26T00:13:56.992Z,6.80
2022-11-26T00:16:23.947Z,6.80
2022-11-26T00:18:50.912Z,6.70
2022-11-26T00:21:23.832Z,6.70
2022-11-26T00:23:51.744Z,6.70
2022-11-26T00:26:22.111Z,6.60
2022-11-26T00:28:55.327Z,6.50
2022-11-26T00:31:23.074Z,6.50
2022-11-26T00:33:50.085Z,6.40
2022-11-26T00:36:28.893Z,6.40
2022-11-26T00:39:11.882Z,6.40
2022-11-26T00:41:39.607Z,6.40
2022-11-26T00:44:17.153Z,6.40
2022-11-26T00:46:44.205Z,6.40
2022-11-26T00:49:11.057Z,6.50
2022-11-26T00:51:38.436Z,6.40
2022-11-26T00:54:06.695Z,6.50
2022-11-26T00:56:37.840Z,6.50
2022-11-26T00:59:05.691Z,6.40
2022-11-26T01:01:33.005Z,6.40
2022-11-26T01:04:00.202Z,6.30
2022-11-26T01:06:33.674Z,6.30
2022-11-26T01:09:01.693Z,6.40
2022-11-26T01:11:28.573Z,6.40
2022-11-26T01:13:56.113Z,6.40
2022-11-26T01:16:34.774Z,6.50
2022-11-26T01:19:02.490Z,6.50
2022-11-26T01:21:31.337Z,6.50
2022-11-26T01:23:58.291Z,6.50
2022-11-26T01:26:28.422Z,6.40
2022-11-26T01:28:55.723Z,6.30
2022-11-26T01:31:28.812Z,6.20
2022-11-26T01:33:56.682Z,6.20
2022-11-26T01:36:29.789Z,6.20
2022-11-26T01:39:18.168Z,6.30
2022-11-26T01:42:03.168Z,6.10
2022-11-26T01:44:33.459Z,6.20
2022-11-26T01:47:04.037Z,6.10
2022-11-26T01:49:33.640Z,6.10
2022-11-26T01:52:22.913Z,6.10
2022-11-26T01:54:52.964Z,6.00
2022-11-26T01:57:25.014Z,6.00
2022-11-26T01:59:59.319Z,5.90
2022-11-26T02:02:29.364Z,5.90
2022-11-26T02:05:14.265Z,5.90
2022-11-26T02:07:41.542Z,5.80
2022-11-26T02:10:09.665Z,5.80
2022-11-26T02:12:37.955Z,5.90
2022-11-26T02:15:05.683Z,5.80
2022-11-26T02:17:55.690Z,5.80
2022-11-26T02:20:42.384Z,5.70
2022-11-26T02:23:30.882Z,5.70
2022-11-26T02:26:13.311Z,5.70
2022-11-26T02:28:55.628Z,5.70
2022-11-26T02:31:44.170Z,5.60
2022-11-26T02:34:37.230Z,5.60
2022-11-26T02:37:10.744Z,5.60
2022-11-26T02:39:37.780Z,5.50
2022-11-26T02:42:32.473Z,5.50
2022-11-26T02:45:07.455Z,5.40
2022-11-26T02:47:36.874Z,5.60
2022-11-26T02:50:08.578Z,5.50
2022-11-26T02:52:37.139Z,5.50
2022-11-26T02:55:08.321Z,5.50
2022-11-26T02:57:41.455Z,5.40
2022-11-26T03:00:09.128Z,5.40
2022-11-26T03:02:47.148Z,5.40
2022-11-26T03:05:17.161Z,5.40
2022-11-26T03:07:47.533Z,5.40
2022-11-26T03:10:17.253Z,5.50
2022-11-26T03:12:44.157Z,5.60
2022-11-26T03:15:11.901Z,5.50
2022-11-26T03:17:39.086Z,5.40
2022-11-26T03:20:06.912Z,5.40
2022-11-26T03:22:33.931Z,5.50
2022-11-26T03:25:00.907Z,5.50
2022-11-26T03:27:27.821Z,5.50
2022-11-26T03:29:57.414Z,5.50
2022-11-26T03:32:24.335Z,5.50
2022-11-26T03:34:51.280Z,5.60
2022-11-26T03:37:19.382Z,5.60
2022-11-26T03:39:46.402Z,5.70
2022-11-26T03:42:13.393Z,5.70
2022-11-26T03:44:40.595Z,5.80
2022-11-26T03:47:10.545Z,5.80
2022-11-26T03:49:37.611Z,5.90
2022-11-26T03:52:04.737Z,6.00
2022-11-26T03:54:31.671Z,6.00
2022-11-26T03:56:58.615Z,6.00
2022-11-26T03:59:25.662Z,6.00
2022-11-26T04:01:52.782Z,6.10
2022-11-26T04:04:19.811Z,6.20
2022-11-26T04:06:46.795Z,6.30
2022-11-26T04:09:13.783Z,6.30
2022-11-26T04:11:40.948Z,6.50
2022-11-26T04:14:07.903Z,6.40
2022-11-26T04:16:34.867Z,6.40
2022-11-26T04:19:04.444Z,6.30
2022-11-26T04:21:31.438Z,6.40
2022-11-26T04:23:59.429Z,6.50
2022-11-26T04:26:26.329Z,6.50
2022-11-26T04:28:53.225Z,6.60
2022-11-26T04:31:20.380Z,6.60
2022-11-26T04:33:47.469Z,6.70
2022-11-26T04:36:17.378Z,6.80
2022-11-26T04:38:44.388Z,6.90
2022-11-26T04:41:11.503Z,6.90
2022-11-26T04:43:38.489Z,7.00
2022-11-26T04:46:08.386Z,7.00
2022-11-26T04:48:35.442Z,7.10
2022-11-26T04:51:02.470Z,7.10
2022-11-26T04:53:29.352Z,7.10
2022-11-26T04:55:56.267Z,7.10
2022-11-26T04:58:23.285Z,7.20
2022-11-26T05:00:51.436Z,7.20
2022-11-26T05:03:19.643Z,7.20
2022-11-26T05:05:47.263Z,7.20
2022-11-26T05:08:14.626Z,7.20
2022-11-26T05:10:41.610Z,7.30
2022-11-26T05:13:08.865Z,7.40
2022-11-26T05:15:36.065Z,7.30
2022-11-26T05:18:03.144Z,7.30
2022-11-26T05:20:30.338Z,7.40
2022-11-26T05:22:58.094Z,7.40
2022-11-26T05:25:25.235Z,7.50
2022-11-26T05:27:55.313Z,7.50
2022-11-26T05:30:22.380Z,7.50
2022-11-26T05:32:49.318Z,7.50
2022-11-26T05:35:16.327Z,7.60
2022-11-26T05:37:43.241Z,7.60
2022-11-26T05:40:11.042Z,7.60
2022-11-26T05:42:38.983Z,7.60
2022-11-26T05:45:06.465Z,7.60
2022-11-26T05:47:33.442Z,7.60
2022-11-26T05:50:00.426Z,7.60
2022-11-26T05:52:27.597Z,7.70
2022-11-26T05:54:54.629Z,7.70
2022-11-26T05:57:21.961Z,7.60
2022-11-26T05:59:49.641Z,7.60
2022-11-26T06:02:16.911Z,7.60
2022-11-26T06:04:44.438Z,7.60
2022-11-26T06:07:11.485Z,7.70
2022-11-26T06:09:38.683Z,7.60
2022-11-26T06:12:06.156Z,7.60
2022-11-26T06:14:38.071Z,7.60
2022-11-26T06:17:07.485Z,7.60
2022-11-26T06:19:34.646Z,7.50
2022-11-26T06:22:01.556Z,7.50
2022-11-26T06:24:28.990Z,7.40
2022-11-26T06:26:55.965Z,7.50
2022-11-26T06:29:27.661Z,7.50
2022-11-26T06:31:55.357Z,7.50
2022-11-26T06:34:22.554Z,7.40
2022-11-26T06:36:49.745Z,7.30
2022-11-26T06:39:16.666Z,7.30
2022-11-26T06:41:43.594Z,7.30
2022-11-26T06:44:10.588Z,7.20
2022-11-26T06:46:38.486Z,7.20
2022-11-26T06:49:06.195Z,7.20
2022-11-26T06:51:33.953Z,7.20
2022-11-26T06:54:00.984Z,7.20
2022-11-26T06:56:28.068Z,7.10
2022-11-26T06:58:57.773Z,7.00
2022-11-26T07:01:26.723Z,6.90
2022-11-26T07:03:54.359Z,6.90
2022-11-26T07:06:26.689Z,6.80
2022-11-26T07:08:55.599Z,6.80
2022-11-26T07:11:24.092Z,6.70
2022-11-26T07:13:51.925Z,6.60
2022-11-26T07:16:19.016Z,6.60
2022-11-26T07:19:00.916Z,6.70
2022-11-26T07:21:29.787Z,6.60
2022-11-26T07:23:56.696Z,6.60
2022-11-26T07:26:24.131Z,6.60
2022-11-26T07:28:51.584Z,6.50
2022-11-26T07:31:21.417Z,6.50
2022-11-26T07:33:49.277Z,6.40
2022-11-26T07:36:19.386Z,6.40
2022-11-26T07:38:46.820Z,6.50
2022-11-26T07:41:16.651Z,6.50
2022-11-26T07:43:44.315Z,6.50
2022-11-26T07:46:13.963Z,6.50
2022-11-26T07:48:41.091Z,6.50
2022-11-26T07:51:25.623Z,6.60
2022-11-26T07:53:53.405Z,6.60
2022-11-26T07:56:20.585Z,6.60
2022-11-26T07:58:48.278Z,6.60
2022-11-26T08:01:21.317Z,6.70
2022-11-26T08:03:50.323Z,6.60
2022-11-26T08:06:22.913Z,6.60
2022-11-26T08:08:50.363Z,6.70
2022-11-26T08:11:26.331Z,6.60
2022-11-26T08:14:02.258Z,6.50
2022-11-26T08:16:29.490Z,6.50
2022-11-26T08:19:01.595Z,6.60
2022-11-26T08:21:28.746Z,6.50
2022-11-26T08:23:56.139Z,6.60
2022-11-26T08:26:32.666Z,6.70
2022-11-26T08:29:01.815Z,6.60
2022-11-26T08:31:29.257Z,6.60
2022-11-26T08:33:58.191Z,6.60
2022-11-26T08:36:26.236Z,6.70
2022-11-26T08:38:56.195Z,6.70
2022-11-26T08:41:23.922Z,6.70
2022-11-26T08:44:06.275Z,6.60
2022-11-26T08:46:34.979Z,6.60
2022-11-26T08:49:01.961Z,6.60
2022-11-26T08:51:31.827Z,6.60
2022-11-26T08:53:58.883Z,6.70
2022-11-26T08:56:25.950Z,6.80
2022-11-26T08:58:52.874Z,6.80
2022-11-26T09:01:24.531Z,6.90
2022-11-26T09:03:53.263Z,6.80
2022-11-26T09:06:27.003Z,6.80
2022-11-26T09:09:12.422Z,6.80
2022-11-26T09:11:54.241Z,6.80
2022-11-26T09:14:24.999Z,6.80
2022-11-26T09:16:53.699Z,6.80
2022-11-26T09:19:20.794Z,6.80
2022-11-26T09:21:50.675Z,6.80
2022-11-26T09:24:18.031Z,6.90
2022-11-26T09:26:45.443Z,6.90
2022-11-26T09:29:24.135Z,6.90
2022-11-26T09:34:39.326Z,7.10
2022-11-26T09:37:06.712Z,7.10
2022-11-26T09:39:33.673Z,7.20
2022-11-26T09:42:21.354Z,7.30
2022-11-26T09:45:16.059Z,7.40
2022-11-26T09:47:48.006Z,7.60
2022-11-26T09:50:14.822Z,7.70
2022-11-26T09:53:11.483Z,7.70
2022-11-26T09:55:41.715Z,7.80
2022-11-26T09:58:18.997Z,7.80
2022-11-26T10:00:50.621Z,7.80
2022-11-26T10:03:23.951Z,7.80
2022-11-26T10:06:07.598Z,7.80
2022-11-26T10:08:44.090Z,7.80
2022-11-26T10:11:36.985Z,7.80
2022-11-26T10:14:28.819Z,7.80
2022-11-26T10:17:07.627Z,7.80
2022-11-26T10:20:05.830Z,7.90
2022-11-26T10:22:56.921Z,8.00
2022-11-26T10:25:31.124Z,8.00
2022-11-26T10:27:59.488Z,8.00
2022-11-26T10:30:29.135Z,8.00
2022-11-26T10:33:00.155Z,7.90
2022-11-26T10:35:29.263Z,8.10
2022-11-26T10:37:59.503Z,8.00
2022-11-26T10:40:31.422Z,8.00
2022-11-26T10:43:03.549Z,7.90
2022-11-26T10:45:42.388Z,7.90
2022-11-26T10:48:19.262Z,7.90
2022-11-26T10:51:09.340Z,7.90
2022-11-26T10:53:51.865Z,7.90
2022-11-26T10:56:44.787Z,7.90
2022-11-26T10:59:25.213Z,8.00
2022-11-26T11:01:56.268Z,7.90
2022-11-26T11:04:35.393Z,8.00
2022-11-26T11:07:03.597Z,8.00
2022-11-26T11:09:36.032Z,7.90
2022-11-26T11:12:11.685Z,8.00
2022-11-26T11:14:43.097Z,8.20
2022-11-26T11:17:40.922Z,8.10
2022-11-26T11:20:17.207Z,8.10
2022-11-26T11:22:47.770Z,8.10
2022-11-26T11:25:26.253Z,8.20
2022-11-26T11:27:55.201Z,8.10
2022-11-26T11:30:32.174Z,8.10
2022-11-26T11:33:11.222Z,8.10
2022-11-26T11:35:38.331Z,8.10
2022-11-26T11:38:24.492Z,8.10
2022-11-26T11:40:53.924Z,7.90
2022-11-26T11:43:26.009Z,7.80
2022-11-26T11:46:10.929Z,7.80
2022-11-26T11:49:05.832Z,7.90
2022-11-26T11:52:13.938Z,7.90
2022-11-26T11:55:13.681Z,8.00
2022-11-26T11:58:05.403Z,8.00
2022-11-26T12:00:58.361Z,7.90
2022-11-26T12:03:57.148Z,8.00
2022-11-26T12:06:40.401Z,7.90
2022-11-26T12:09:22.241Z,7.90
2022-11-26T12:12:07.592Z,8.00
2022-11-26T12:15:27.001Z,8.00
2022-11-26T12:18:22.029Z,8.00
2022-11-26T12:21:10.161Z,8.00
2022-11-26T12:23:47.256Z,8.00
2022-11-26T12:26:34.601Z,7.90
2022-11-26T12:29:26.182Z,8.00
2022-11-26T12:31:58.089Z,8.00
2022-11-26T12:34:41.258Z,8.10
2022-11-26T12:37:20.032Z,8.20
2022-11-26T12:39:53.854Z,8.20
2022-11-26T12:42:42.199Z,8.10
2022-11-26T12:45:39.623Z,8.10
2022-11-26T12:48:22.438Z,8.20
2022-11-26T12:50:59.249Z,8.30
2022-11-26T12:53:33.021Z,8.20
2022-11-26T12:56:16.369Z,8.20
2022-11-26T12:59:14.714Z,8.20
2022-11-26T13:01:41.634Z,8.20
2022-11-26T13:07:09.783Z,8.20
2022-11-26T13:09:55.855Z,8.20
2022-11-26T13:12:35.440Z,8.20
2022-11-26T13:15:13.927Z,8.20
2022-11-26T13:17:46.555Z,8.20
2022-11-26T13:20:48.067Z,8.20
2022-11-26T13:23:43.185Z,8.10
2022-11-26T13:26:19.036Z,8.10
2022-11-26T13:29:37.372Z,8.20
2022-11-26T13:32:49.298Z,8.20
2022-11-26T13:35:41.002Z,8.10
2022-11-26T13:38:32.977Z,8.10
2022-11-26T13:41:31.936Z,8.10
2022-11-26T13:44:06.952Z,8.10
2022-11-26T13:46:53.726Z,8.10
2022-11-26T13:49:33.253Z,8.10
2022-11-26T13:52:30.798Z,8.00
2022-11-26T13:55:05.807Z,8.10
2022-11-26T13:57:41.398Z,8.00
2022-11-26T14:00:09.446Z,8.10
2022-11-26T14:02:42.782Z,8.00
2022-11-26T14:05:17.154Z,8.00
2022-11-26T14:07:45.513Z,8.00
2022-11-26T14:10:34.304Z,8.00
2022-11-26T14:13:04.160Z,8.10
2022-11-26T14:15:43.322Z,8.00
2022-11-26T14:18:12.447Z,7.90
2022-11-26T14:21:11.967Z,8.00
2022-11-26T14:23:43.608Z,7.90
2022-11-26T14:26:28.250Z,7.90
2022-11-26T14:29:09.910Z,7.90
2022-11-26T14:31:41.591Z,7.90
2022-11-26T14:34:18.571Z,7.90
2022-11-26T14:36:57.743Z,7.90
2022-11-26T14:39:26.218Z,7.80
2022-11-26T14:41:54.452Z,7.90
2022-11-26T14:44:23.420Z,7.80
2022-11-26T14:47:08.497Z,7.80
2022-11-26T14:49:41.526Z,7.80
2022-11-26T14:52:30.734Z,7.70
2022-11-26T14:55:00.451Z,7.80
2022-11-26T14:57:50.530Z,7.80
2022-11-26T15:00:17.391Z,7.80
2022-11-26T15:02:45.914Z,7.80
2022-11-26T15:05:19.277Z,7.80
2022-11-26T15:07:47.222Z,7.80
2022-11-26T15:10:17.933Z,7.70
2022-11-26T15:12:47.609Z,7.70
2022-11-26T15:15:17.443Z,7.70
2022-11-26T15:17:48.485Z,7.70
2022-11-26T15:20:17.605Z,7.70
2022-11-26T15:22:53.446Z,7.70
2022-11-26T15:25:29.055Z,7.70
2022-11-26T15:28:05.286Z,7.60
2022-11-26T15:30:37.661Z,7.60
2022-11-26T15:33:07.378Z,7.50
2022-11-26T15:35:36.239Z,7.60
2022-11-26T15:38:12.844Z,7.60
2022-11-26T15:41:04.527Z,7.60
2022-11-26T15:43:42.616Z,7.50
2022-11-26T15:46:30.353Z,7.50
2022-11-26T15:49:00.821Z,7.50
2022-11-26T15:51:36.096Z,7.50
2022-11-26T15:54:20.283Z,7.50
2022-11-26T15:56:52.979Z,7.40
2022-11-26T15:59:20.576Z,7.40
2022-11-26T16:01:47.743Z,7.50
2022-11-26T16:04:33.020Z,7.50
2022-11-26T16:07:13.922Z,7.40
2022-11-26T16:09:41.257Z,7.40
2022-11-26T16:12:31.813Z,7.40
2022-11-26T16:15:20.849Z,7.40
2022-11-26T16:17:49.261Z,7.30
2022-11-26T16:20:24.643Z,7.40
2022-11-26T16:22:57.625Z,7.30
2022-11-26T16:25:33.375Z,7.40
2022-11-26T16:28:10.895Z,7.40
2022-11-26T16:30:39.156Z,7.40
2022-11-26T16:33:07.129Z,7.40
2022-11-26T16:35:49.661Z,7.40
2022-11-26T16:38:22.083Z,7.30
2022-11-26T16:40:50.199Z,7.40
2022-11-26T16:43:17.392Z,7.50
2022-11-26T16:45:45.424Z,7.50
2022-11-26T16:48:26.513Z,7.50
2022-11-26T16:50:58.396Z,7.40
2022-11-26T16:53:25.506Z,7.40
2022-11-26T16:55:53.682Z,7.50
2022-11-26T16:58:32.377Z,7.40
2022-11-26T17:00:59.766Z,7.50
2022-11-26T17:03:29.927Z,7.50
2022-11-26T17:06:00.739Z,7.50
2022-11-26T17:08:29.877Z,7.60
2022-11-26T17:10:57.286Z,7.50
2022-11-26T17:13:25.320Z,7.50
2022-11-26T17:15:52.302Z,7.50
2022-11-26T17:18:24.863Z,7.60
2022-11-26T17:20:53.444Z,7.70
2022-11-26T17:23:20.845Z,7.80
2022-11-26T17:25:52.770Z,7.70
2022-11-26T17:28:21.227Z,7.80
2022-11-26T17:30:48.260Z,7.80
2022-11-26T17:33:15.238Z,7.80
2022-11-26T17:35:42.238Z,7.80
2022-11-26T17:38:21.050Z,7.80
2022-11-26T17:40:48.388Z,7.80
2022-11-26T17:43:15.462Z,7.70
2022-11-26T17:45:42.821Z,7.70
2022-11-26T17:48:13.454Z,7.60
2022-11-26T17:50:41.227Z,7.70
2022-11-26T17:53:08.320Z,7.70
2022-11-26T17:55:35.395Z,7.70
2022-11-26T17:58:02.322Z,7.80
2022-11-26T18:00:30.230Z,7.80
2022-11-26T18:02:57.403Z,7.80
2022-11-26T18:05:24.483Z,7.80
2022-11-26T18:07:52.050Z,7.80
2022-11-26T18:10:20.690Z,7.80
2022-11-26T18:12:48.152Z,7.80
2022-11-26T18:15:26.279Z,7.80
2022-11-26T18:17:55.082Z,7.80
2022-11-26T18:20:25.917Z,7.80
2022-11-26T18:22:55.683Z,7.80
2022-11-26T18:25:22.965Z,7.80
2022-11-26T18:27:49.924Z,7.80
2022-11-26T18:30:17.728Z,7.80
2022-11-26T18:32:45.775Z,7.70
2022-11-26T18:35:14.436Z,7.70
2022-11-26T18:37:42.690Z,7.80
2022-11-26T18:40:13.789Z,7.80
2022-11-26T18:42:40.819Z,7.80
2022-11-26T18:45:10.470Z,7.70
2022-11-26T18:47:37.854Z,7.70
2022-11-26T18:50:06.091Z,7.70
2022-11-26T18:52:33.077Z,7.70
2022-11-26T18:55:00.294Z,7.70
2022-11-26T18:57:27.844Z,7.60
2022-11-26T18:59:54.751Z,7.60
2022-11-26T19:02:21.792Z,7.60
2022-11-26T19:04:48.926Z,7.60
2022-11-26T19:07:15.928Z,7.60
2022-11-26T19:09:43.260Z,7.60
2022-11-26T19:12:12.755Z,7.60
2022-11-26T19:14:39.702Z,7.60
2022-11-26T19:17:06.631Z,7.60
2022-11-26T19:19:33.646Z,7.70
2022-11-26T19:22:01.891Z,7.60
2022-11-26T19:24:30.044Z,7.60
2022-11-26T19:26:57.366Z,7.60
2022-11-26T19:29:24.437Z,7.60
2022-11-26T19:31:51.531Z,7.60
2022-11-26T19:34:18.429Z,7.60
2022-11-26T19:36:48.488Z,7.60
2022-11-26T19:39:16.000Z,7.60
2022-11-26T19:41:43.051Z,7.60
2022-11-26T19:44:10.024Z,7.70
2022-11-26T19:46:40.815Z,7.70
2022-11-26T19:49:11.969Z,7.60
2022-11-26T19:51:39.435Z,7.70
2022-11-26T19:54:07.243Z,7.70
2022-11-26T19:56:34.723Z,7.60
2022-11-26T19:59:02.298Z,7.70
2022-11-26T20:01:31.493Z,7.70
2022-11-26T20:04:04.507Z,7.70
2022-11-26T20:06:33.284Z,7.70
2022-11-26T20:09:00.907Z,7.70
2022-11-26T20:11:29.182Z,7.80
2022-11-26T20:13:56.848Z,7.80
2022-11-26T20:16:29.710Z,7.80
2022-11-26T20:18:58.199Z,7.70
2022-11-26T20:21:27.953Z,7.70
2022-11-26T20:23:58.012Z,7.80
2022-11-26T20:26:31.570Z,7.80
2022-11-26T20:29:18.352Z,7.80
2022-11-26T20:31:47.891Z,7.70
2022-11-26T20:34:26.250Z,7.80
2022-11-26T20:36:53.361Z,7.80
2022-11-26T20:39:22.514Z,7.80
2022-11-26T20:41:50.164Z,7.90
2022-11-26T20:44:17.666Z,7.80
2022-11-26T20:46:44.626Z,7.70
2022-11-26T20:49:11.738Z,7.80
2022-11-26T20:51:39.191Z,7.90
2022-11-26T20:54:06.214Z,7.80
2022-11-26T20:56:36.978Z,7.90
2022-11-26T20:59:04.062Z,7.90
2022-11-26T21:01:31.620Z,8.10
2022-11-26T21:03:59.318Z,8.00
2022-11-26T21:06:30.430Z,8.00
2022-11-26T21:09:01.067Z,7.90
2022-11-26T21:11:30.273Z,7.90
2022-11-26T21:13:58.766Z,7.90
2022-11-26T21:16:26.159Z,7.80
2022-11-26T21:18:54.716Z,7.90
2022-11-26T21:21:22.515Z,7.80
2022-11-26T21:23:49.776Z,7.90
2022-11-26T21:26:22.612Z,7.90
2022-11-26T21:28:56.313Z,7.90
2022-11-26T21:31:24.324Z,7.90
2022-11-26T21:33:55.720Z,7.90
2022-11-26T21:36:23.889Z,7.90
2022-11-26T21:38:51.126Z,7.90
2022-11-26T21:41:19.942Z,7.90
2022-11-26T21:43:48.255Z,7.90
2022-11-26T21:46:18.451Z,8.00
2022-11-26T21:48:45.490Z,8.00
2022-11-26T21:51:15.434Z,8.00
2022-11-26T21:53:43.756Z,8.00
2022-11-26T21:56:30.720Z,8.00
2022-11-26T21:58:59.211Z,8.00
2022-11-26T22:01:31.480Z,8.00
2022-11-26T22:04:01.362Z,8.00
2022-11-26T22:06:29.075Z,8.00
2022-11-26T22:08:56.803Z,8.00
2022-11-26T22:11:29.028Z,8.00
2022-11-26T22:13:56.670Z,8.00
2022-11-26T22:16:26.094Z,8.00
2022-11-26T22:18:53.902Z,8.10
2022-11-26T22:21:27.444Z,8.10
2022-11-26T22:23:54.394Z,8.10
2022-11-26T22:26:25.225Z,8.10
2022-11-26T22:28:52.677Z,8.10
2022-11-26T22:31:33.124Z,8.10
2022-11-26T22:34:14.954Z,8.10
2022-11-26T22:36:43.872Z,8.10
2022-11-26T22:39:13.353Z,8.10
2022-11-26T22:41:41.448Z,8.10
2022-11-26T22:44:09.159Z,8.00
2022-11-26T22:46:38.303Z,8.10
2022-11-26T22:49:06.336Z,8.10
2022-11-26T22:51:35.113Z,8.10
2022-11-26T22:54:04.819Z,8.10
2022-11-26T22:56:37.760Z,8.20
2022-11-26T22:59:07.011Z,8.20
2022-11-26T23:01:35.436Z,8.20
2022-11-26T23:04:05.057Z,8.10
2022-11-26T23:06:34.440Z,8.20
2022-11-26T23:09:03.717Z,8.20
2022-11-26T23:11:33.779Z,8.30
2022-11-26T23:14:08.177Z,8.30
2022-11-26T23:16:37.131Z,8.20
2022-11-26T23:19:04.686Z,8.30
2022-11-26T23:21:38.551Z,8.30
2022-11-26T23:24:06.391Z,8.40
2022-11-26T23:26:34.905Z,8.30
2022-11-26T23:29:03.474Z,8.30
2022-11-26T23:31:39.585Z,8.40
2022-11-26T23:34:07.744Z,8.30
2022-11-26T23:36:35.751Z,8.30
2022-11-26T23:39:07.413Z,8.20
2022-11-26T23:41:34.691Z,8.20
2022-11-26T23:44:01.673Z,8.20
2022-11-26T23:46:31.313Z,8.20
2022-11-26T23:48:58.662Z,8.20
2022-11-26T23:51:28.690Z,8.20
2022-11-26T23:53:55.812Z,8.20
2022-11-26T23:56:25.915Z,8.30
2022-11-26T23:58:57.392Z,8.20
